Beach City, Ohio
Current Conditions -  °F | °C
As of 9:53 PM on Sunday 23 Nov 2014 (Local Time) from KPHD Reporting Station
Light Rain Light Rain  
Wind Chill: 53°   Ceiling: 9000
Heat Index: 53°   Visibility: 7mi
Dew Point: 48°   Wind: 14mph
Humidity: 83%   Direction: 130°SE
Pressure: 29.52"   Gusts: NA
Location:  40.65°N, 81.58°W
Report Text: KPHD 240253Z AUTO 13012KT 7SM -RA SCT055 BKN090 OVC100 12/09 A2952 RMK AO2 PRESFR SLP997 P0007 60014 T01170089 58046
Loading
Personal Weather Stations






























Interactive Weather Map New forecast layout! Learn more

10-Day Weather Forecast

Advertisements
Track Severe Weather on mobile